Time;durP1;ratioP1;P1;durP2;ratioP2;P2;SDS_P1;SDS_P2;PMS_P1;PMS_P2;Temp;Humidity;BMP_temperature;BMP_pressure;BME280_temperature;BME280_humidity;BME280_pressure;Samples;Min_cycle;Max_cycle;Signal;HPM_P1;HPM_P2
2022/09/01 00:01:41;;;;;;;46.23;4.70;;;;;;;13.74;100.00;96081.13;4984558;28;24901;-72
2022/09/01 00:04:11;;;;;;;14.83;4.40;;;;;;;13.74;100.00;96086.34;4989314;28;24464;-72
2022/09/01 00:06:39;;;;;;;6.60;4.55;;;;;;;13.83;100.00;96081.41;4986886;28;24544;-72
2022/09/01 00:09:10;;;;;;;14.82;3.08;;;;;;;13.87;100.00;96080.25;4989691;28;24437;-72
2022/09/01 00:11:37;;;;;;;21.23;4.20;;;;;;;13.84;100.00;96075.28;4987182;28;24954;-72
2022/09/01 00:14:06;;;;;;;38.30;4.10;;;;;;;13.68;100.00;96078.97;4988904;28;24900;-72
2022/09/01 00:16:34;;;;;;;15.77;2.67;;;;;;;13.83;100.00;96076.22;4989524;28;24464;-72
2022/09/01 00:19:01;;;;;;;9.73;2.95;;;;;;;13.75;100.00;96074.16;4984847;28;24433;-72
2022/09/01 00:21:30;;;;;;;12.98;2.95;;;;;;;13.69;100.00;96072.00;4983372;28;24450;-73
2022/09/01 00:23:56;;;;;;;9.03;2.67;;;;;;;13.65;100.00;96079.19;4986840;28;24433;-72
2022/09/01 00:26:24;;;;;;;11.00;2.97;;;;;;;13.65;100.00;96078.34;4988440;28;24460;-72
2022/09/01 00:28:51;;;;;;;13.57;3.50;;;;;;;13.61;100.00;96077.75;4985309;28;24468;-72
2022/09/01 00:31:18;;;;;;;18.10;3.47;;;;;;;13.58;100.00;96075.34;4983301;28;24504;-72
2022/09/01 00:33:45;;;;;;;11.82;2.85;;;;;;;13.60;100.00;96070.84;4981390;28;24429;-72
2022/09/01 00:36:12;;;;;;;12.50;2.67;;;;;;;13.50;100.00;96072.44;4982187;28;24871;-72
2022/09/01 00:38:39;;;;;;;11.10;2.90;;;;;;;13.51;100.00;96066.31;4984946;28;24942;-72
2022/09/01 00:41:07;;;;;;;7.60;2.63;;;;;;;13.46;100.00;96064.03;4985775;28;24445;-72
2022/09/01 00:43:43;;;;;;;7.47;2.70;;;;;;;13.52;100.00;96078.38;4981924;28;24445;-72
2022/09/01 00:46:12;;;;;;;3.05;2.72;;;;;;;13.56;100.00;96067.63;4978274;28;24536;-72
2022/09/01 00:48:39;;;;;;;4.50;2.38;;;;;;;13.39;100.00;96074.97;4984260;28;24522;-72
2022/09/01 00:51:08;;;;;;;4.78;2.97;;;;;;;13.33;100.00;96071.00;4986073;28;24448;-72
2022/09/01 00:53:37;;;;;;;6.05;2.78;;;;;;;13.58;100.00;96067.53;4983070;28;24437;-72
2022/09/01 00:56:06;;;;;;;7.05;2.40;;;;;;;13.16;100.00;96064.31;4988196;28;25036;-72
2022/09/01 00:58:35;;;;;;;8.32;3.30;;;;;;;12.91;100.00;96064.34;4986907;28;24429;-72
2022/09/01 01:01:04;;;;;;;11.00;2.78;;;;;;;12.72;100.00;96062.97;4989347;28;24448;-73
2022/09/01 01:03:31;;;;;;;3.75;2.92;;;;;;;12.75;100.00;96067.09;4986492;28;24441;-72
2022/09/01 01:06:04;;;;;;;4.50;2.80;;;;;;;12.74;100.00;96061.09;4978042;28;24903;-72
2022/09/01 01:08:33;;;;;;;3.47;3.08;;;;;;;12.72;100.00;96068.16;4988593;28;24523;-72
2022/09/01 01:11:01;;;;;;;3.60;3.30;;;;;;;12.74;100.00;96063.69;4990184;28;25075;-72
2022/09/01 01:13:30;;;;;;;5.18;3.42;;;;;;;12.75;100.00;96065.34;4986074;28;25061;-72
2022/09/01 01:15:58;;;;;;;5.00;3.50;;;;;;;12.82;100.00;96058.81;4991332;28;24447;-72
2022/09/01 01:18:26;;;;;;;3.83;3.42;;;;;;;12.90;100.00;96066.09;4985883;28;24796;-72
2022/09/01 01:23:51;;;;;;;4.63;3.40;;;;;;;12.91;100.00;96062.56;4989517;28;24507;-72
2022/09/01 01:26:19;;;;;;;3.60;3.30;;;;;;;12.93;100.00;96058.06;4981472;28;24441;-72
2022/09/01 01:28:46;;;;;;;3.42;3.15;;;;;;;12.92;100.00;96055.59;4989861;28;24437;-72
2022/09/01 01:31:14;;;;;;;3.70;3.40;;;;;;;12.89;100.00;96048.00;4989113;28;25006;-72
2022/09/01 01:33:43;;;;;;;3.28;3.00;;;;;;;13.04;100.00;96052.16;4989155;28;24440;-72
2022/09/01 01:36:18;;;;;;;3.30;3.00;;;;;;;12.97;100.00;96049.13;4988997;28;24815;-72
2022/09/01 01:38:46;;;;;;;3.10;2.83;;;;;;;13.02;100.00;96054.03;4984460;28;24481;-72
2022/09/01 01:41:14;;;;;;;4.03;2.83;;;;;;;13.06;100.00;96051.13;4992330;28;24448;-72
2022/09/01 01:43:42;;;;;;;3.03;2.80;;;;;;;13.16;100.00;96053.91;4991167;28;24472;-72
2022/09/01 01:46:13;;;;;;;2.97;2.60;;;;;;;13.25;100.00;96055.94;4988538;28;24437;-72
2022/09/01 01:48:41;;;;;;;2.85;2.50;;;;;;;13.21;100.00;96061.41;4989723;28;24460;-72
2022/09/01 01:51:10;;;;;;;2.92;2.63;;;;;;;13.25;100.00;96057.69;4991103;28;24444;-72
2022/09/01 01:53:38;;;;;;;2.58;2.33;;;;;;;13.28;100.00;96060.09;4991420;28;24433;-72
2022/09/01 01:56:05;;;;;;;2.50;2.30;;;;;;;13.34;100.00;96062.25;4990767;28;24436;-72
2022/09/01 01:58:33;;;;;;;3.20;2.65;;;;;;;13.22;100.00;96061.31;4990791;28;24523;-72
2022/09/01 02:01:02;;;;;;;3.97;3.50;;;;;;;13.31;100.00;96058.13;4990017;28;24983;-72
2022/09/01 02:03:37;;;;;;;3.80;3.50;;;;;;;13.36;100.00;96065.59;4989989;28;24491;-72
2022/09/01 02:06:08;;;;;;;3.57;3.23;;;;;;;13.30;100.00;96063.41;4991293;28;24444;-72
2022/09/01 02:08:37;;;;;;;3.35;3.08;;;;;;;13.26;100.00;96065.38;4990188;28;24469;-72
2022/09/01 02:11:06;;;;;;;3.45;3.03;;;;;;;13.27;100.00;96067.06;4990407;28;24444;-72
2022/09/01 02:13:32;;;;;;;3.65;3.35;;;;;;;13.37;100.00;96066.44;4984069;28;24433;-72
2022/09/01 02:16:06;;;;;;;2.73;2.27;;;;;;;13.34;100.00;96067.47;4991911;28;24495;-72
2022/09/01 02:18:35;;;;;;;11.20;4.20;;;;;;;13.31;100.00;96063.31;4990679;28;24787;-72
2022/09/01 02:21:02;;;;;;;7.80;4.15;;;;;;;13.37;100.00;96056.84;4990354;28;24499;-71
2022/09/01 02:23:29;;;;;;;4.22;3.10;;;;;;;13.46;100.00;96060.56;4991212;28;24440;-72
2022/09/01 02:25:59;;;;;;;5.53;3.40;;;;;;;13.53;100.00;96065.25;4990628;28;24484;-72
2022/09/01 02:28:27;;;;;;;6.72;4.00;;;;;;;13.51;100.00;96064.53;4982188;28;24449;-71
2022/09/01 02:30:54;;;;;;;9.95;4.38;;;;;;;13.53;100.00;96054.00;4990188;28;25077;-72
2022/09/01 02:33:24;;;;;;;9.57;4.53;;;;;;;13.50;100.00;96056.84;4990076;28;24436;-72
2022/09/01 02:35:54;;;;;;;11.60;8.25;;;;;;;13.41;100.00;96054.88;4985778;28;24437;-72
2022/09/01 02:38:26;;;;;;;11.43;7.45;;;;;;;13.56;100.00;96056.41;4982237;28;24445;-72
2022/09/01 02:40:53;;;;;;;7.07;4.10;;;;;;;13.54;100.00;96053.09;4979371;28;24536;-72
2022/09/01 02:43:21;;;;;;;6.05;5.25;;;;;;;13.55;100.00;96050.34;4991935;28;24443;-72
2022/09/01 02:45:51;;;;;;;5.70;3.23;;;;;;;13.61;100.00;96056.06;4985953;28;24433;-71
2022/09/01 02:48:17;;;;;;;4.95;3.35;;;;;;;13.48;100.00;96051.72;4977919;28;24461;-72
2022/09/01 02:50:45;;;;;;;6.63;4.63;;;;;;;13.43;100.00;96058.19;4987324;28;24433;-72
2022/09/01 02:53:14;;;;;;;7.93;5.90;;;;;;;13.39;100.00;96054.97;4989333;28;24512;-72
2022/09/01 02:55:42;;;;;;;9.93;5.55;;;;;;;13.36;100.00;96049.16;4986617;28;24890;-72
2022/09/01 02:58:13;;;;;;;15.88;6.28;;;;;;;13.28;100.00;96047.91;4989995;28;24436;-72
2022/09/01 03:00:40;;;;;;;8.50;7.03;;;;;;;13.36;100.00;96046.56;4985874;28;25053;-72
2022/09/01 03:03:07;;;;;;;10.82;6.47;;;;;;;13.42;100.00;96044.38;4990920;28;24437;-72
2022/09/01 03:05:37;;;;;;;10.05;6.28;;;;;;;13.40;100.00;96043.63;4986354;28;24436;-72
2022/09/01 03:08:09;;;;;;;11.75;5.32;;;;;;;13.38;100.00;96044.66;4985516;28;25025;-72
2022/09/01 03:10:40;;;;;;;8.65;4.38;;;;;;;13.39;100.00;96044.56;4990416;28;24502;-76
2022/09/01 03:13:09;;;;;;;7.65;4.78;;;;;;;13.31;100.00;96047.72;4989391;28;24523;-75
2022/09/01 03:15:36;;;;;;;13.02;5.10;;;;;;;13.32;100.00;96053.75;4984376;28;24433;-75
2022/09/01 03:18:05;;;;;;;6.40;5.87;;;;;;;13.26;100.00;96054.97;4982932;28;24444;-75
2022/09/01 03:20:34;;;;;;;7.78;6.72;;;;;;;13.30;100.00;96047.78;4986061;28;24819;-75
2022/09/01 03:23:03;;;;;;;7.85;5.43;;;;;;;13.39;100.00;96054.16;4988616;28;24886;-74
2022/09/01 03:25:32;;;;;;;7.97;4.77;;;;;;;13.31;100.00;96058.13;4984429;28;25058;-74
2022/09/01 03:28:00;;;;;;;7.60;6.90;;;;;;;13.29;100.00;96056.56;4989283;28;25175;-74
2022/09/01 03:30:28;;;;;;;5.13;4.72;;;;;;;13.40;100.00;96061.84;4989189;28;24536;-74
2022/09/01 03:32:55;;;;;;;6.10;5.50;;;;;;;13.36;100.00;96054.38;4989087;28;25060;-74
2022/09/01 03:35:22;;;;;;;11.00;9.35;;;;;;;13.36;100.00;96062.16;4989726;28;24438;-74
2022/09/01 03:37:48;;;;;;;21.23;17.48;;;;;;;13.34;100.00;96058.81;4989675;28;24440;-75
2022/09/01 03:40:17;;;;;;;21.35;19.05;;;;;;;13.61;100.00;96061.28;4986616;28;24433;-74
2022/09/01 03:42:45;;;;;;;20.25;17.67;;;;;;;13.49;100.00;96060.34;4988983;28;25028;-74
2022/09/01 03:45:15;;;;;;;19.23;17.23;;;;;;;13.68;100.00;96057.28;4988984;28;24425;-74
2022/09/01 03:47:42;;;;;;;19.38;17.15;;;;;;;13.66;100.00;96056.59;4989390;28;24576;-74
2022/09/01 03:50:16;;;;;;;23.90;17.57;;;;;;;13.83;100.00;96052.78;4989326;28;24456;-74
2022/09/01 03:52:44;;;;;;;22.50;16.30;;;;;;;13.67;100.00;96047.84;4989046;28;24441;-75
2022/09/01 03:55:10;;;;;;;17.80;15.90;;;;;;;13.62;100.00;96049.94;4989379;28;24902;-74
2022/09/01 03:57:41;;;;;;;19.85;17.65;;;;;;;13.44;100.00;96047.69;4989695;28;24831;-74
2022/09/01 04:00:19;;;;;;;18.17;16.17;;;;;;;13.57;100.00;96050.25;4988253;28;24433;-74
2022/09/01 04:02:47;;;;;;;17.25;15.55;;;;;;;13.55;100.00;96045.16;4986086;28;24800;-73
2022/09/01 04:05:13;;;;;;;17.90;16.20;;;;;;;13.44;100.00;96039.03;4990512;28;24433;-72
2022/09/01 04:07:40;;;;;;;17.67;15.65;;;;;;;13.48;100.00;96048.28;4986348;28;24452;-73
2022/09/01 04:10:10;;;;;;;19.48;15.27;;;;;;;13.52;100.00;96052.34;4981971;28;24436;-73
2022/09/01 04:12:37;;;;;;;18.38;16.38;;;;;;;13.51;100.00;96051.50;4986163;28;24532;-74
2022/09/01 04:15:04;;;;;;;22.15;16.80;;;;;;;13.41;100.00;96049.66;4988831;28;24429;-73
2022/09/01 04:20:19;;;;;;;17.73;15.50;;;;;;;13.44;100.00;96052.88;4983069;28;24796;-72
2022/09/01 04:22:46;;;;;;;16.75;15.25;;;;;;;13.45;100.00;96048.50;4986347;28;24460;-73
2022/09/01 04:25:13;;;;;;;17.38;14.68;;;;;;;13.46;100.00;96050.16;4982955;28;24445;-72
2022/09/01 04:27:40;;;;;;;20.55;16.08;;;;;;;13.40;100.00;96043.63;4986657;28;24508;-73
2022/09/01 04:30:10;;;;;;;18.88;16.88;;;;;;;13.39;100.00;96043.75;4987363;28;24528;-73
2022/09/01 04:32:39;;;;;;;18.48;16.20;;;;;;;13.38;100.00;96050.69;4990257;28;24437;-73
2022/09/01 04:35:06;;;;;;;18.08;16.35;;;;;;;13.45;100.00;96051.09;4986976;28;24799;-73
2022/09/01 04:37:35;;;;;;;22.15;18.75;;;;;;;13.30;100.00;96059.03;4990478;28;24471;-73
2022/09/01 04:40:02;;;;;;;18.92;16.95;;;;;;;13.40;100.00;96055.81;4993215;28;24433;-73
2022/09/01 04:42:31;;;;;;;21.00;18.50;;;;;;;13.43;100.00;96058.19;4989892;28;24429;-73
2022/09/01 04:44:59;;;;;;;21.95;19.55;;;;;;;13.32;100.00;96059.78;4991897;28;24872;-73
2022/09/01 04:47:29;;;;;;;22.08;19.73;;;;;;;13.20;100.00;96062.34;4989068;28;24433;-73
2022/09/01 04:49:59;;;;;;;20.58;18.35;;;;;;;13.12;100.00;96059.44;4988996;28;25061;-73
2022/09/01 04:52:26;;;;;;;21.27;18.95;;;;;;;13.09;100.00;96060.50;4985803;28;24444;-73
2022/09/01 04:54:53;;;;;;;20.88;18.60;;;;;;;13.13;100.00;96061.13;4990861;28;24997;-73
2022/09/01 04:57:20;;;;;;;19.92;17.88;;;;;;;13.19;100.00;96061.50;4990949;28;24491;-73
2022/09/01 04:59:46;;;;;;;24.50;18.60;;;;;;;13.31;100.00;96070.25;4993730;28;24802;-73
2022/09/01 05:02:13;;;;;;;21.05;18.92;;;;;;;13.40;100.00;96067.03;4985325;28;24796;-73
2022/09/01 05:04:40;;;;;;;22.25;19.95;;;;;;;13.32;100.00;96070.19;4988921;28;24442;-73
2022/09/01 05:07:08;;;;;;;20.33;18.25;;;;;;;13.32;100.00;96056.34;4985501;28;24537;-73
2022/09/01 05:09:37;;;;;;;20.65;18.55;;;;;;;13.29;100.00;96061.75;4988005;28;24537;-73
2022/09/01 05:12:10;;;;;;;20.60;18.40;;;;;;;13.36;100.00;96065.59;4990910;28;24791;-73
2022/09/01 05:14:38;;;;;;;21.50;19.30;;;;;;;13.37;100.00;96064.66;4988561;28;24889;-73
2022/09/01 05:17:09;;;;;;;20.95;18.85;;;;;;;13.46;100.00;96064.03;4985201;28;25138;-73
2022/09/01 05:19:36;;;;;;;21.30;19.13;;;;;;;13.50;100.00;96067.25;4988625;28;24437;-73
2022/09/01 05:22:03;;;;;;;19.88;17.80;;;;;;;13.59;100.00;96066.59;4984985;28;24433;-73
2022/09/01 05:24:33;;;;;;;21.10;18.90;;;;;;;13.59;100.00;96057.97;4989037;28;24464;-73
2022/09/01 05:27:00;;;;;;;23.50;18.52;;;;;;;13.51;100.00;96064.53;4991810;28;24532;-73
2022/09/01 05:29:28;;;;;;;19.58;17.60;;;;;;;13.48;100.00;96069.13;4988878;28;24449;-73
2022/09/01 05:31:55;;;;;;;19.85;17.90;;;;;;;13.45;100.00;96066.72;4991569;28;24455;-73
2022/09/01 05:34:26;;;;;;;20.33;18.15;;;;;;;13.45;100.00;96072.75;4992948;28;24997;-73
2022/09/01 05:36:54;;;;;;;19.55;17.58;;;;;;;13.53;100.00;96064.41;4991248;28;24521;-73
2022/09/01 05:39:20;;;;;;;18.75;16.85;;;;;;;13.59;100.00;96069.19;4979622;28;24428;-73
2022/09/01 05:41:48;;;;;;;18.40;16.40;;;;;;;13.68;100.00;96067.72;4984043;28;24437;-73
2022/09/01 05:44:15;;;;;;;17.95;16.10;;;;;;;13.72;100.00;96072.63;4981011;28;25002;-72
2022/09/01 05:46:43;;;;;;;17.37;15.60;;;;;;;13.81;100.00;96071.13;4990238;28;24456;-73
2022/09/01 05:49:12;;;;;;;18.42;16.58;;;;;;;13.92;100.00;96065.97;4981179;28;24820;-73
2022/09/01 05:51:41;;;;;;;17.08;15.27;;;;;;;13.99;100.00;96058.56;4990413;28;24445;-73
2022/09/01 05:54:09;;;;;;;20.45;17.40;;;;;;;13.85;100.00;96059.53;4991668;28;24487;-73
2022/09/01 05:56:41;;;;;;;20.20;18.15;;;;;;;13.66;100.00;96062.63;4991396;28;24850;-73
2022/09/01 05:59:09;;;;;;;20.63;18.45;;;;;;;13.59;100.00;96060.56;4990282;28;24962;-73
2022/09/01 06:01:40;;;;;;;19.98;17.85;;;;;;;13.54;100.00;96060.88;4991724;28;24437;-73
2022/09/01 06:04:09;;;;;;;18.45;16.70;;;;;;;13.68;100.00;96054.69;4991218;28;25129;-73
2022/09/01 06:06:39;;;;;;;18.38;16.48;;;;;;;13.82;100.00;96048.53;4990076;28;24429;-73
2022/09/01 06:09:07;;;;;;;17.83;16.13;;;;;;;13.91;100.00;96053.09;4991351;28;24464;-75
2022/09/01 06:11:34;;;;;;;17.87;16.03;;;;;;;14.04;100.00;96051.25;4991135;28;24449;-75
2022/09/01 06:14:02;;;;;;;19.98;17.85;;;;;;;14.31;100.00;96047.56;4989105;28;24444;-75
2022/09/01 06:16:30;;;;;;;19.48;17.60;;;;;;;14.34;100.00;96047.34;4991496;28;24433;-75
2022/09/01 06:18:58;;;;;;;20.75;18.58;;;;;;;14.48;100.00;96045.41;4990338;28;24439;-73
2022/09/01 06:21:27;;;;;;;20.08;18.08;;;;;;;14.63;100.00;96045.25;4991519;28;24473;-73
2022/09/01 06:23:55;;;;;;;19.48;17.38;;;;;;;14.81;100.00;96043.03;4985983;28;24437;-73
2022/09/01 06:26:26;;;;;;;20.98;17.58;;;;;;;14.86;100.00;96048.72;4989126;28;24437;-73
2022/09/01 06:28:53;;;;;;;21.50;18.20;;;;;;;14.71;100.00;96048.94;4991088;28;24448;-73
2022/09/01 06:31:22;;;;;;;19.25;17.38;;;;;;;14.94;100.00;96048.97;4988640;28;24452;-73
2022/09/01 06:33:52;;;;;;;21.35;17.92;;;;;;;14.91;100.00;96047.44;4986366;28;24563;-73
2022/09/01 06:36:20;;;;;;;18.42;16.58;;;;;;;14.92;100.00;96058.69;4989091;28;24788;-74
2022/09/01 06:38:48;;;;;;;19.23;16.92;;;;;;;14.86;100.00;96053.94;4986542;28;24843;-74
2022/09/01 06:41:18;;;;;;;17.77;15.95;;;;;;;14.86;100.00;96059.16;4982211;28;24446;-73
2022/09/01 06:43:45;;;;;;;22.08;18.02;;;;;;;14.58;100.00;96060.41;4987536;28;24444;-73
2022/09/01 06:46:11;;;;;;;18.90;16.92;;;;;;;14.64;100.00;96059.94;4983265;28;24440;-73
2022/09/01 06:48:45;;;;;;;19.23;17.38;;;;;;;14.60;100.00;96061.94;4985850;28;24460;-73
2022/09/01 06:51:15;;;;;;;18.17;16.35;;;;;;;14.75;100.00;96060.78;4990522;28;25069;-73
2022/09/01 06:53:42;;;;;;;20.70;18.60;;;;;;;14.72;100.00;96058.44;4988183;28;24499;-73
2022/09/01 06:56:11;;;;;;;19.57;17.60;;;;;;;14.89;100.00;96064.97;4983428;28;25658;-73
2022/09/01 06:58:40;;;;;;;17.73;15.90;;;;;;;14.98;100.00;96066.03;4985841;28;24429;-73
2022/09/01 07:01:10;;;;;;;16.38;14.75;;;;;;;14.95;100.00;96064.53;4990603;28;24437;-73
2022/09/01 07:03:38;;;;;;;16.30;14.65;;;;;;;14.80;100.00;96070.06;4988402;28;24507;-73
2022/09/01 07:06:06;;;;;;;17.05;14.18;;;;;;;14.88;100.00;96063.31;4990726;28;24807;-73
2022/09/01 07:08:38;;;;;;;15.13;13.65;;;;;;;15.00;100.00;96077.22;4988127;28;24499;-74
2022/09/01 07:11:06;;;;;;;16.48;13.93;;;;;;;15.05;100.00;96074.25;4990310;28;24499;-74
2022/09/01 07:13:35;;;;;;;16.10;14.40;;;;;;;15.20;100.00;96076.53;4985945;28;24460;-73
2022/09/01 07:16:05;;;;;;;18.30;15.10;;;;;;;15.38;100.00;96076.88;4988974;28;25082;-74
2022/09/01 07:18:33;;;;;;;17.02;15.23;;;;;;;15.67;100.00;96079.88;4976937;28;24434;-73
2022/09/01 07:21:01;;;;;;;17.40;14.57;;;;;;;15.59;100.00;96086.63;4987084;28;24516;-73
2022/09/01 07:23:28;;;;;;;17.02;14.82;;;;;;;15.68;100.00;96091.16;4979434;28;24433;-73
2022/09/01 07:25:58;;;;;;;15.90;14.30;;;;;;;15.54;100.00;96081.78;4989831;28;24524;-73
2022/09/01 07:28:28;;;;;;;15.90;13.75;;;;;;;15.59;100.00;96091.84;4983822;28;25026;-73
2022/09/01 07:30:56;;;;;;;15.88;14.23;;;;;;;15.66;100.00;96085.22;4989863;28;24449;-74
2022/09/01 07:33:23;;;;;;;16.80;13.57;;;;;;;15.65;100.00;96088.78;4978702;28;24459;-74
2022/09/01 07:35:52;;;;;;;16.88;14.02;;;;;;;15.28;100.00;96086.38;4990452;28;25041;-74
2022/09/01 07:38:19;;;;;;;16.48;14.68;;;;;;;15.19;100.00;96087.06;4988012;28;24886;-74
2022/09/01 07:40:47;;;;;;;15.93;14.10;;;;;;;15.39;100.00;96088.19;4990167;28;25016;-74
2022/09/01 07:43:21;;;;;;;14.40;13.10;;;;;;;15.60;100.00;96085.66;4982822;28;24448;-74
2022/09/01 07:45:49;;;;;;;14.75;13.32;;;;;;;15.82;100.00;96090.91;4982684;28;24455;-74
2022/09/01 07:48:19;;;;;;;14.10;12.73;;;;;;;15.95;100.00;96090.78;4977445;28;24799;-75
2022/09/01 07:50:48;;;;;;;14.90;13.10;;;;;;;15.97;100.00;96091.47;4990258;28;24444;-74
2022/09/01 07:53:17;;;;;;;14.13;12.70;;;;;;;16.01;100.00;96095.50;4984924;28;24804;-74
2022/09/01 07:55:44;;;;;;;13.35;12.00;;;;;;;16.17;100.00;96098.56;4990672;28;24441;-74
2022/09/01 07:58:10;;;;;;;13.88;12.50;;;;;;;16.21;100.00;96097.38;4983529;28;24473;-74
2022/09/01 08:00:42;;;;;;;17.13;14.27;;;;;;;16.04;100.00;96097.88;4990346;28;24795;-74
2022/09/01 08:03:08;;;;;;;14.70;13.10;;;;;;;16.22;100.00;96098.19;4983686;28;24433;-74
2022/09/01 08:05:35;;;;;;;16.67;12.63;;;;;;;16.40;100.00;96104.56;4976458;28;24441;-75
2022/09/01 08:08:01;;;;;;;14.15;12.77;;;;;;;16.40;100.00;96109.78;4986700;28;24441;-75
2022/09/01 08:10:28;;;;;;;13.13;11.93;;;;;;;16.56;100.00;96103.31;4983833;28;24483;-75
2022/09/01 08:12:55;;;;;;;13.95;11.93;;;;;;;16.57;100.00;96107.59;4977654;28;24800;-75
2022/09/01 08:15:22;;;;;;;12.15;8.95;;;;;;;16.85;100.00;96107.03;4984016;28;24429;-75
2022/09/01 08:17:50;;;;;;;9.65;8.32;;;;;;;17.53;100.00;96115.28;4977624;28;24433;-75
2022/09/01 08:20:16;;;;;;;10.45;8.88;;;;;;;17.57;100.00;96108.81;4983157;28;24991;-75
2022/09/01 08:22:43;;;;;;;14.18;8.90;;;;;;;17.52;100.00;96116.25;4984963;28;24441;-74
2022/09/01 08:25:10;;;;;;;9.63;7.68;;;;;;;17.46;100.00;96108.06;4980079;28;25001;-74
2022/09/01 08:27:38;;;;;;;8.85;8.05;;;;;;;17.46;100.00;96110.69;4985317;28;24435;-74
2022/09/01 08:30:06;;;;;;;9.57;8.45;;;;;;;17.35;100.00;96111.59;4987445;28;24464;-74
2022/09/01 08:32:33;;;;;;;9.47;8.57;;;;;;;17.29;100.00;96115.56;4979175;28;25063;-74
2022/09/01 08:35:03;;;;;;;7.57;6.88;;;;;;;17.26;100.00;96118.44;4980702;28;24429;-74
2022/09/01 08:37:29;;;;;;;9.00;8.05;;;;;;;17.37;100.00;96118.38;4985230;28;24531;-74
2022/09/01 08:39:56;;;;;;;6.32;5.72;;;;;;;17.28;100.00;96115.69;4979571;28;24433;-74
2022/09/01 08:42:41;;;;;;;13.02;6.47;;;;;;;17.33;100.00;96124.84;4983038;28;24433;-74
2022/09/01 08:45:15;;;;;;;7.63;6.07;;;;;;;17.06;100.00;96127.16;4977798;28;24451;-74
2022/09/01 08:47:42;;;;;;;6.70;5.68;;;;;;;17.01;100.00;96122.28;4981920;28;24425;-74
2022/09/01 08:50:11;;;;;;;6.80;5.05;;;;;;;17.09;100.00;96127.72;4980916;28;24904;-74
2022/09/01 08:52:42;;;;;;;5.28;4.65;;;;;;;17.20;100.00;96121.56;4978990;28;24434;-74
2022/09/01 08:55:15;;;;;;;7.03;5.17;;;;;;;17.29;100.00;96120.81;4981552;28;25006;-74
2022/09/01 08:57:44;;;;;;;5.15;4.68;;;;;;;17.45;100.00;96127.38;4978448;28;24436;-74
2022/09/01 09:00:13;;;;;;;7.72;6.63;;;;;;;17.63;100.00;96125.81;4987591;28;25022;-74
2022/09/01 09:02:50;;;;;;;5.97;5.37;;;;;;;17.24;100.00;96124.75;4978728;28;24440;-74
2022/09/01 09:05:31;;;;;;;10.52;8.65;;;;;;;17.46;100.00;96124.59;4982697;28;24437;-74
2022/09/01 09:08:19;;;;;;;11.25;8.02;;;;;;;17.56;100.00;96128.13;4977174;28;24488;-75
2022/09/01 09:10:54;;;;;;;9.27;8.30;;;;;;;17.51;100.00;96127.69;4985451;28;24488;-74
2022/09/01 09:13:29;;;;;;;9.75;7.47;;;;;;;17.52;100.00;96126.72;4985366;28;24511;-74
2022/09/01 09:16:01;;;;;;;6.53;5.72;;;;;;;17.18;100.00;96126.13;4988667;28;24994;-74
2022/09/01 09:18:37;;;;;;;6.65;5.72;;;;;;;17.37;100.00;96128.84;4989918;28;24441;-74
2022/09/01 09:21:10;;;;;;;6.97;6.05;;;;;;;17.46;100.00;96134.25;4990722;28;25076;-74
2022/09/01 09:23:43;;;;;;;6.22;5.63;;;;;;;17.55;100.00;96129.09;4991633;28;24432;-74
2022/09/01 09:26:09;;;;;;;5.25;4.43;;;;;;;17.89;100.00;96128.84;4990086;28;25018;-74
2022/09/01 09:28:38;;;;;;;5.30;4.10;;;;;;;18.09;100.00;96127.94;4991090;28;24963;-74
2022/09/01 09:31:29;;;;;;;4.72;3.42;;;;;;;18.00;100.00;96135.78;4990632;28;24457;-74
2022/09/01 09:33:56;;;;;;;4.60;3.70;;;;;;;17.97;100.00;96142.09;4989846;28;24440;-74
2022/09/01 09:36:30;;;;;;;5.63;3.58;;;;;;;17.85;100.00;96136.13;4989608;28;24472;-74
2022/09/01 09:39:06;;;;;;;4.28;3.88;;;;;;;17.76;100.00;96131.72;4984891;28;24990;-74
2022/09/01 09:41:32;;;;;;;5.45;4.03;;;;;;;17.71;100.00;96131.22;4986590;28;24441;-74
2022/09/01 09:44:05;;;;;;;5.20;4.70;;;;;;;17.85;100.00;96133.53;4989796;28;24440;-74
2022/09/01 09:46:35;;;;;;;5.00;4.50;;;;;;;17.87;100.00;96126.38;4989635;28;24532;-74
2022/09/01 09:49:12;;;;;;;5.13;4.30;;;;;;;17.79;100.00;96131.41;4990591;28;24440;-74
2022/09/01 09:51:42;;;;;;;7.28;4.40;;;;;;;17.93;100.00;96130.22;4987461;28;24437;-74
2022/09/01 09:54:15;;;;;;;5.22;4.32;;;;;;;18.24;100.00;96124.94;4981559;28;24808;-74
2022/09/01 09:56:44;;;;;;;5.60;4.32;;;;;;;18.52;100.00;96128.59;4988387;28;24429;-74
2022/09/01 09:59:26;;;;;;;6.65;4.93;;;;;;;18.50;100.00;96136.59;4989532;28;24460;-74
2022/09/01 10:01:57;;;;;;;7.13;4.90;;;;;;;18.43;100.00;96129.38;4986966;28;24997;-74
2022/09/01 10:04:36;;;;;;;6.88;4.65;;;;;;;18.46;100.00;96132.56;4987705;28;24448;-74
2022/09/01 10:07:24;;;;;;;7.20;4.32;;;;;;;18.37;100.00;96128.16;4988390;28;24437;-74
2022/09/01 10:09:51;;;;;;;5.70;5.00;;;;;;;18.49;100.00;96123.59;4986567;28;24807;-74
2022/09/01 10:12:18;;;;;;;6.25;4.82;;;;;;;18.70;100.00;96126.94;4989667;28;24437;-73
2022/09/01 10:14:49;;;;;;;5.93;5.10;;;;;;;18.76;100.00;96129.06;4987129;28;24441;-74
2022/09/01 10:17:21;;;;;;;7.88;5.10;;;;;;;18.56;100.00;96130.78;4986224;28;24437;-74
2022/09/01 10:19:53;;;;;;;7.72;4.75;;;;;;;18.65;100.00;96123.91;4984497;28;24429;-74
2022/09/01 10:22:23;;;;;;;5.60;4.60;;;;;;;18.56;100.00;96117.66;4978331;28;24999;-74
2022/09/01 10:24:49;;;;;;;5.05;4.25;;;;;;;18.86;100.00;96126.41;4976815;28;24439;-74
2022/09/01 10:27:20;;;;;;;6.20;4.57;;;;;;;18.97;100.00;96114.94;4982301;28;24440;-74
2022/09/01 10:29:50;;;;;;;6.20;5.20;;;;;;;18.98;97.33;96121.84;4985591;28;24529;-74
2022/09/01 10:32:20;;;;;;;5.47;4.97;;;;;;;18.97;100.00;96115.78;4982472;28;24799;-74
2022/09/01 10:34:48;;;;;;;5.97;5.03;;;;;;;19.16;100.00;96114.91;4987305;28;24433;-74
2022/09/01 10:37:16;;;;;;;6.45;5.85;;;;;;;19.28;100.00;96112.94;4975834;28;24437;-74
2022/09/01 10:40:15;;;;;;;6.10;5.50;;;;;;;19.38;99.69;96118.19;4986204;28;24432;-74
2022/09/01 10:42:44;;;;;;;6.97;5.60;;;;;;;19.26;94.77;96109.66;4978843;28;24448;-74
2022/09/01 10:45:28;;;;;;;7.83;5.33;;;;;;;18.99;99.59;96118.28;4987228;28;25017;-74
2022/09/01 10:47:57;;;;;;;7.63;5.93;;;;;;;19.17;100.00;96108.72;4982896;28;20848;-74
2022/09/01 10:50:28;;;;;;;8.45;5.40;;;;;;;19.40;100.00;96108.38;4991013;28;25055;-74
2022/09/01 10:53:01;;;;;;;4.43;4.03;;;;;;;19.54;91.90;96102.66;4988314;28;25088;-74
2022/09/01 10:55:33;;;;;;;4.25;3.85;;;;;;;19.34;91.80;96094.84;4982360;28;24998;-74
2022/09/01 10:58:13;;;;;;;4.85;3.92;;;;;;;19.52;92.73;96100.19;4982302;28;25005;-74
2022/09/01 11:00:46;;;;;;;4.57;3.72;;;;;;;19.76;93.78;96097.09;4987408;28;24971;-74
2022/09/01 11:03:58;;;;;;;5.10;3.67;;;;;;;19.97;90.80;96103.91;4983801;28;24436;-74
2022/09/01 11:06:55;;;;;;;6.95;3.33;;;;;;;20.13;90.12;96096.19;4988493;28;24455;-74
2022/09/01 11:09:25;;;;;;;4.03;3.53;;;;;;;20.34;89.80;96101.19;4977554;28;24532;-74
2022/09/01 11:12:21;;;;;;;4.20;3.53;;;;;;;20.29;84.94;96095.56;4989990;28;24440;-74
2022/09/01 11:14:50;;;;;;;3.50;3.20;;;;;;;20.08;90.37;96089.72;4985220;28;24987;-74
2022/09/01 11:17:20;;;;;;;5.15;3.15;;;;;;;20.28;92.90;96094.75;4978795;28;24453;-74
2022/09/01 11:19:56;;;;;;;4.57;3.42;;;;;;;20.51;87.45;96095.16;4977510;28;24429;-74
2022/09/01 11:22:26;;;;;;;3.88;3.33;;;;;;;20.63;84.07;96094.94;4983464;28;24967;-74
2022/09/01 11:25:14;;;;;;;4.30;3.25;;;;;;;20.64;83.88;96089.50;4987805;28;25013;-74
2022/09/01 11:27:59;;;;;;;4.40;3.37;;;;;;;20.82;84.91;96094.78;4989203;28;24425;-74
2022/09/01 11:30:35;;;;;;;6.07;2.90;;;;;;;20.90;78.38;96091.38;4984239;28;24465;-74
2022/09/01 11:33:13;;;;;;;3.40;3.10;;;;;;;20.46;80.05;96092.09;4990382;28;24461;-74
2022/09/01 11:35:40;;;;;;;5.32;3.10;;;;;;;20.09;79.68;96100.09;4987968;28;24439;-74
2022/09/01 11:38:08;;;;;;;5.63;3.05;;;;;;;19.92;81.28;96083.31;4987902;28;24437;-74